Time;durP1;ratioP1;P1;durP2;ratioP2;P2;SDS_P1;SDS_P2;PMS_P1;PMS_P2;Temp;Humidity;BMP_temperature;BMP_pressure;BME280_temperature;BME280_humidity;BME280_pressure;Samples;Min_cycle;Max_cycle;Signal;HPM_P1;HPM_P2
2023/04/28 00:01:51;;;;;;;9.00;7.70;;;;;;;;;;5015065;28;20478;-76
2023/04/28 00:04:19;;;;;;;9.37;7.53;;;;;;;;;;5012674;28;20450;-76
2023/04/28 00:06:47;;;;;;;9.80;6.90;;;;;;;;;;5014397;28;20449;-77
2023/04/28 00:09:15;;;;;;;12.17;7.97;;;;;;;;;;5017415;28;20447;-76
2023/04/28 00:11:48;;;;;;;8.60;7.27;;;;;;;;;;5017874;28;20522;-77
2023/04/28 00:14:15;;;;;;;8.50;7.40;;;;;;;;;;5016468;28;20505;-77
2023/04/28 00:16:43;;;;;;;8.27;7.47;;;;;;;;;;5016167;28;20451;-77
2023/04/28 00:19:13;;;;;;;8.20;6.97;;;;;;;;;;5017042;28;20455;-77
2023/04/28 00:21:41;;;;;;;8.40;7.60;;;;;;;;;;5016133;28;20451;-77
2023/04/28 00:24:11;;;;;;;9.73;7.80;;;;;;;;;;5016527;28;20448;-76
2023/04/28 00:26:42;;;;;;;8.47;7.67;;;;;;;;;;5016589;28;20467;-77
2023/04/28 00:29:13;;;;;;;8.83;7.93;;;;;;;;;;5016805;28;20475;-77
2023/04/28 00:31:41;;;;;;;8.23;7.00;;;;;;;;;;5017775;28;20461;-77
2023/04/28 00:34:23;;;;;;;7.40;6.70;;;;;;;;;;5017665;28;20482;-77
2023/04/28 00:36:51;;;;;;;8.20;7.50;;;;;;;;;;5019428;28;20447;-76
2023/04/28 00:39:21;;;;;;;8.83;7.93;;;;;;;;;;5018036;28;20543;-76
2023/04/28 00:41:52;;;;;;;9.37;8.07;;;;;;;;;;5015287;28;20474;-76
2023/04/28 00:44:19;;;;;;;8.57;7.73;;;;;;;;;;5015617;28;20527;-77
2023/04/28 00:46:48;;;;;;;10.50;7.90;;;;;;;;;;5018731;28;20456;-76
2023/04/28 00:49:16;;;;;;;10.13;7.53;;;;;;;;;;5018938;28;20554;-78
2023/04/28 00:51:46;;;;;;;7.60;6.90;;;;;;;;;;5020604;28;20462;-78
2023/04/28 00:54:17;;;;;;;7.83;7.03;;;;;;;;;;5031726;28;20505;-76
2023/04/28 00:56:51;;;;;;;13.10;10.13;;;;;;;;;;5034387;28;20426;-77
2023/04/28 00:59:19;;;;;;;9.53;8.63;;;;;;;;;;5034916;28;20424;-78
2023/04/28 01:01:51;;;;;;;9.30;7.67;;;;;;;;;;5035632;28;20427;-77
2023/04/28 01:04:21;;;;;;;8.83;7.50;;;;;;;;;;5034819;28;20423;-76
2023/04/28 01:06:52;;;;;;;9.03;7.00;;;;;;;;;;5036090;28;20447;-76
2023/04/28 01:09:24;;;;;;;7.70;7.00;;;;;;;;;;5036328;28;20487;-76
2023/04/28 01:11:57;;;;;;;7.40;6.70;;;;;;;;;;5036755;28;20491;-76
2023/04/28 01:14:28;;;;;;;8.90;7.43;;;;;;;;;;5036727;28;20452;-76
2023/04/28 01:17:02;;;;;;;10.27;6.87;;;;;;;;;;5037048;28;20498;-76
2023/04/28 01:19:36;;;;;;;7.83;7.03;;;;;;;;;;5036857;28;20462;-77
2023/04/28 01:22:15;;;;;;;8.30;7.10;;;;;;;;;;5035159;28;20462;-76
2023/04/28 01:24:48;;;;;;;7.60;6.50;;;;;;;;;;5024570;28;20455;-77
2023/04/28 01:27:19;;;;;;;7.90;6.40;;;;;;;;;;5023959;28;20471;-77
2023/04/28 01:29:48;;;;;;;7.70;7.00;;;;;;;;;;5023632;28;20458;-78
2023/04/28 01:32:16;;;;;;;8.03;6.57;;;;;;;;;;5021676;28;20490;-76
2023/04/28 01:34:45;;;;;;;7.83;7.13;;;;;;;;;;5025399;28;20455;-76
2023/04/28 01:37:16;;;;;;;7.70;7.00;;;;;;;;;;5033904;28;20478;-77
2023/04/28 01:39:45;;;;;;;7.47;6.67;;;;;;;;;;5038111;28;20510;-75
2023/04/28 01:42:13;;;;;;;8.17;7.47;;;;;;;;;;5038129;28;20474;-76
2023/04/28 01:44:41;;;;;;;7.80;7.00;;;;;;;;;;5038192;28;20403;-76
2023/04/28 01:47:08;;;;;;;7.17;6.57;;;;;;;;;;5037983;28;20506;-77
2023/04/28 01:49:36;;;;;;;6.70;5.93;;;;;;;;;;5037877;28;20439;-76
2023/04/28 01:52:06;;;;;;;8.90;6.83;;;;;;;;;;5037678;28;20510;-76
2023/04/28 01:54:34;;;;;;;7.53;6.90;;;;;;;;;;5036076;28;20467;-77
2023/04/28 01:57:06;;;;;;;9.63;6.83;;;;;;;;;;5031508;28;20459;-76
2023/04/28 01:59:36;;;;;;;8.40;6.77;;;;;;;;;;5017053;28;20571;-77
2023/04/28 02:02:10;;;;;;;7.33;6.63;;;;;;;;;;5016399;28;20487;-78
2023/04/28 02:04:42;;;;;;;6.73;6.13;;;;;;;;;;5018723;28;20455;-77
2023/04/28 02:07:10;;;;;;;9.03;6.60;;;;;;;;;;5017839;28;20483;-77
2023/04/28 02:09:47;;;;;;;10.17;7.07;;;;;;;;;;5016458;28;20483;-76
2023/04/28 02:12:18;;;;;;;7.60;6.70;;;;;;;;;;5017175;28;20455;-77
2023/04/28 02:14:50;;;;;;;10.90;7.47;;;;;;;;;;5016463;28;20490;-76
2023/04/28 02:17:18;;;;;;;10.70;7.00;;;;;;;;;;5018658;28;20518;-76
2023/04/28 02:19:49;;;;;;;6.77;6.13;;;;;;;;;;5022758;28;20900;-77
2023/04/28 02:22:22;;;;;;;7.50;6.70;;;;;;;;;;5021844;28;20459;-78
2023/04/28 02:24:58;;;;;;;7.10;6.40;;;;;;;;;;5020715;28;20479;-77
2023/04/28 02:27:30;;;;;;;10.83;6.33;;;;;;;;;;5021003;28;20475;-77
2023/04/28 02:29:58;;;;;;;7.87;6.50;;;;;;;;;;5021707;28;20448;-77
2023/04/28 02:32:26;;;;;;;7.00;5.93;;;;;;;;;;5023255;28;20450;-78
2023/04/28 02:35:12;;;;;;;8.27;6.13;;;;;;;;;;5022541;28;20462;-76
2023/04/28 02:37:43;;;;;;;7.50;6.70;;;;;;;;;;5018581;28;20516;-76
2023/04/28 02:40:11;;;;;;;7.47;6.27;;;;;;;;;;5018879;28;20503;-76
2023/04/28 02:42:44;;;;;;;6.90;6.30;;;;;;;;;;5035787;28;20467;-75
2023/04/28 02:45:12;;;;;;;7.80;6.27;;;;;;;;;;5038809;28;20444;-76
2023/04/28 02:47:45;;;;;;;8.30;6.57;;;;;;;;;;5038184;28;20563;-76
2023/04/28 02:50:22;;;;;;;7.97;6.40;;;;;;;;;;5037738;28;20427;-77
2023/04/28 02:52:55;;;;;;;6.37;5.80;;;;;;;;;;5037400;28;20439;-76
2023/04/28 02:55:30;;;;;;;7.30;6.70;;;;;;;;;;5036326;28;20446;-76
2023/04/28 02:58:10;;;;;;;8.90;6.10;;;;;;;;;;5027644;28;20558;-76
2023/04/28 03:00:53;;;;;;;7.97;7.20;;;;;;;;;;5024131;28;20451;-76
2023/04/28 03:03:24;;;;;;;7.00;6.20;;;;;;;;;;5023152;28;20451;-76
2023/04/28 03:05:56;;;;;;;7.20;6.60;;;;;;;;;;5023482;28;20451;-76
2023/04/28 03:08:24;;;;;;;7.53;6.80;;;;;;;;;;5022886;28;20479;-77
2023/04/28 03:10:53;;;;;;;10.50;6.93;;;;;;;;;;5022990;28;20795;-76
2023/04/28 03:13:34;;;;;;;8.80;6.40;;;;;;;;;;5021072;28;20488;-77
2023/04/28 03:16:06;;;;;;;7.23;6.63;;;;;;;;;;5019866;28;20451;-77
2023/04/28 03:18:35;;;;;;;6.90;6.33;;;;;;;;;;5020039;28;20468;-77
2023/04/28 03:21:05;;;;;;;7.17;6.47;;;;;;;;;;5019295;28;20510;-77
2023/04/28 03:23:36;;;;;;;6.67;6.07;;;;;;;;;;5018178;28;20454;-77
2023/04/28 03:26:09;;;;;;;7.43;6.73;;;;;;;;;;5019232;28;20548;-77
2023/04/28 03:28:41;;;;;;;10.67;7.67;;;;;;;;;;5018580;28;20485;-77
2023/04/28 03:31:20;;;;;;;8.40;7.50;;;;;;;;;;5019028;28;20451;-78
2023/04/28 03:33:51;;;;;;;9.30;6.87;;;;;;;;;;5018673;28;20479;-76
2023/04/28 03:36:32;;;;;;;9.90;7.87;;;;;;;;;;5018848;28;20517;-77
2023/04/28 03:39:08;;;;;;;8.30;7.50;;;;;;;;;;5021145;28;20553;-77
2023/04/28 03:41:36;;;;;;;8.20;7.40;;;;;;;;;;5019223;28;20431;-78
2023/04/28 03:44:06;;;;;;;10.37;7.97;;;;;;;;;;5018640;28;20452;-76
2023/04/28 03:46:35;;;;;;;8.87;7.97;;;;;;;;;;5019379;28;20471;-76
2023/04/28 03:49:07;;;;;;;8.30;7.50;;;;;;;;;;5019279;28;20483;-76
2023/04/28 03:51:41;;;;;;;8.57;7.67;;;;;;;;;;5019419;28;20851;-77
2023/04/28 03:54:09;;;;;;;8.40;7.60;;;;;;;;;;5019667;28;20554;-77
2023/04/28 03:56:37;;;;;;;11.10;7.47;;;;;;;;;;5020321;28;20462;-77
2023/04/28 03:59:11;;;;;;;8.37;7.53;;;;;;;;;;5020516;28;20491;-77
2023/04/28 04:01:40;;;;;;;8.33;7.50;;;;;;;;;;5016641;28;20458;-76
2023/04/28 04:04:10;;;;;;;8.87;7.97;;;;;;;;;;5016441;28;20447;-78
2023/04/28 04:06:38;;;;;;;8.20;7.47;;;;;;;;;;5016786;28;20451;-77
2023/04/28 04:09:08;;;;;;;13.13;8.03;;;;;;;;;;5016268;28;20517;-77
2023/04/28 04:11:39;;;;;;;8.87;8.00;;;;;;;;;;5016802;28;20428;-77
2023/04/28 04:14:07;;;;;;;8.00;7.30;;;;;;;;;;5016019;28;20497;-78
2023/04/28 04:16:41;;;;;;;9.10;8.30;;;;;;;;;;5014892;28;20530;-77
2023/04/28 04:19:09;;;;;;;7.97;7.17;;;;;;;;;;5016182;28;20479;-77
2023/04/28 04:21:42;;;;;;;8.83;8.03;;;;;;;;;;5016180;28;20463;-77
2023/04/28 04:24:26;;;;;;;8.20;7.40;;;;;;;;;;5017554;28;20459;-77
2023/04/28 04:26:57;;;;;;;8.70;8.00;;;;;;;;;;5028278;28;20447;-76
2023/04/28 04:29:34;;;;;;;8.87;8.03;;;;;;;;;;5034532;28;20454;-77
2023/04/28 04:32:03;;;;;;;8.30;7.60;;;;;;;;;;5035546;28;20904;-76
2023/04/28 04:34:32;;;;;;;7.63;6.80;;;;;;;;;;5035864;28;20459;-75
2023/04/28 04:36:59;;;;;;;7.97;7.27;;;;;;;;;;5034957;28;20458;-76
2023/04/28 04:39:30;;;;;;;8.50;7.73;;;;;;;;;;5031272;28;20444;-78
2023/04/28 04:42:01;;;;;;;8.77;7.97;;;;;;;;;;5030798;28;20478;-79
2023/04/28 04:44:29;;;;;;;7.97;7.17;;;;;;;;;;5025122;28;20443;-76
2023/04/28 04:46:57;;;;;;;8.73;7.77;;;;;;;;;;5035088;28;20434;-75
2023/04/28 04:49:26;;;;;;;8.67;7.50;;;;;;;;;;5038384;28;20442;-77
2023/04/28 04:51:54;;;;;;;8.43;7.60;;;;;;;;;;5037803;28;20440;-76
2023/04/28 04:54:29;;;;;;;9.20;8.23;;;;;;;;;;5034115;28;20502;-77
2023/04/28 04:56:58;;;;;;;9.33;8.33;;;;;;;;;;5014448;28;20837;-77
2023/04/28 04:59:27;;;;;;;9.17;8.37;;;;;;;;;;5012998;28;20530;-76
2023/04/28 05:01:55;;;;;;;8.70;7.77;;;;;;;;;;5012028;28;20455;-75
2023/04/28 05:07:41;;;;;;;10.50;9.43;;;;;;;;;;5011240;28;20463;-76
2023/04/28 05:10:36;;;;;;;9.00;8.23;;;;;;;;;;5013626;28;21017;-77
2023/04/28 05:13:13;;;;;;;13.20;9.40;;;;;;;;;;5012554;28;20707;-77
2023/04/28 05:15:48;;;;;;;13.43;10.67;;;;;;;;;;5012597;28;20478;-76
2023/04/28 05:18:21;;;;;;;13.20;9.83;;;;;;;;;;5013135;28;20582;-76
2023/04/28 05:21:16;;;;;;;13.87;9.80;;;;;;;;;;5012762;28;20477;-76
2023/04/28 05:23:47;;;;;;;8.30;7.60;;;;;;;;;;5012540;28;20452;-76
2023/04/28 05:26:16;;;;;;;8.47;7.67;;;;;;;;;;5012427;28;20534;-77
2023/04/28 05:28:46;;;;;;;11.27;7.50;;;;;;;;;;5012042;28;20541;-77
2023/04/28 05:31:17;;;;;;;11.17;8.73;;;;;;;;;;5013306;28;20919;-77
2023/04/28 05:33:46;;;;;;;7.00;6.40;;;;;;;;;;5013533;28;20479;-77
2023/04/28 05:36:15;;;;;;;9.10;6.43;;;;;;;;;;5011912;28;20456;-77
2023/04/28 05:38:45;;;;;;;6.00;5.50;;;;;;;;;;5014523;28;20831;-76
2023/04/28 05:41:13;;;;;;;6.10;5.60;;;;;;;;;;5016200;28;21114;-76
2023/04/28 05:43:43;;;;;;;5.70;5.20;;;;;;;;;;5015382;28;20447;-77
2023/04/28 05:46:11;;;;;;;5.90;5.50;;;;;;;;;;5015270;28;20451;-76
2023/04/28 05:48:38;;;;;;;6.27;5.70;;;;;;;;;;5015482;28;20574;-76
2023/04/28 05:51:06;;;;;;;6.17;5.60;;;;;;;;;;5015578;28;20947;-77
2023/04/28 05:53:36;;;;;;;8.87;8.10;;;;;;;;;;5015716;28;20465;-77
2023/04/28 05:56:04;;;;;;;9.27;8.40;;;;;;;;;;5017236;28;20521;-76
2023/04/28 05:58:32;;;;;;;8.03;7.23;;;;;;;;;;5016123;28;20995;-76
2023/04/28 06:01:01;;;;;;;7.23;6.53;;;;;;;;;;5014957;28;20490;-77
2023/04/28 06:03:34;;;;;;;6.93;6.33;;;;;;;;;;5015480;28;20459;-76
2023/04/28 06:06:05;;;;;;;8.40;7.13;;;;;;;;;;5016665;28;20474;-76
2023/04/28 06:08:32;;;;;;;7.27;6.67;;;;;;;;;;5021747;28;20479;-75
2023/04/28 06:11:00;;;;;;;8.20;7.40;;;;;;;;;;5020228;28;20455;-77
2023/04/28 06:13:29;;;;;;;8.60;7.80;;;;;;;;;;5017678;28;20455;-76
2023/04/28 06:15:58;;;;;;;9.33;7.43;;;;;;;;;;5018478;28;21049;-76
2023/04/28 06:18:32;;;;;;;13.07;11.77;;;;;;;;;;5019193;28;20484;-77
2023/04/28 06:21:03;;;;;;;11.03;9.90;;;;;;;;;;5020849;28;20473;-76
2023/04/28 06:23:34;;;;;;;11.60;10.33;;;;;;;;;;5022814;28;20470;-76
2023/04/28 06:26:02;;;;;;;11.73;9.00;;;;;;;;;;5023070;28;20482;-76
2023/04/28 06:28:30;;;;;;;9.43;8.60;;;;;;;;;;5023883;28;20468;-76
2023/04/28 06:30:58;;;;;;;10.33;9.10;;;;;;;;;;5024086;28;20455;-76
2023/04/28 06:33:32;;;;;;;10.33;9.30;;;;;;;;;;5018691;28;20451;-76
2023/04/28 06:36:02;;;;;;;9.57;8.63;;;;;;;;;;5019266;28;20479;-77
2023/04/28 06:38:37;;;;;;;8.87;8.00;;;;;;;;;;5026577;28;20483;-77
2023/04/28 06:41:05;;;;;;;10.20;9.20;;;;;;;;;;5024350;28;20514;-77
2023/04/28 06:43:33;;;;;;;9.33;8.37;;;;;;;;;;5024590;28;20448;-77
2023/04/28 06:46:02;;;;;;;24.83;19.90;;;;;;;;;;5025277;28;20515;-77
2023/04/28 06:48:32;;;;;;;11.60;10.50;;;;;;;;;;5021564;28;20463;-76
2023/04/28 06:51:00;;;;;;;10.10;9.20;;;;;;;;;;5022918;28;20511;-77
2023/04/28 06:53:28;;;;;;;9.67;8.07;;;;;;;;;;5021660;28;20463;-77
2023/04/28 06:55:57;;;;;;;9.13;8.23;;;;;;;;;;5022448;28;20467;-76
2023/04/28 06:58:25;;;;;;;9.87;9.07;;;;;;;;;;5021113;28;20502;-77
2023/04/28 07:00:54;;;;;;;8.83;8.00;;;;;;;;;;5021872;28;20443;-77
2023/04/28 07:03:22;;;;;;;8.73;7.93;;;;;;;;;;5021534;28;20475;-76
2023/04/28 07:05:55;;;;;;;9.00;8.20;;;;;;;;;;5021400;28;20490;-77
2023/04/28 07:08:34;;;;;;;11.97;9.03;;;;;;;;;;5020691;28;21018;-77
2023/04/28 07:11:03;;;;;;;9.67;8.73;;;;;;;;;;5020092;28;20506;-78
2023/04/28 07:13:34;;;;;;;10.90;8.23;;;;;;;;;;5019798;28;20447;-76
2023/04/28 07:16:02;;;;;;;8.77;7.97;;;;;;;;;;5018448;28;21002;-76
2023/04/28 07:18:31;;;;;;;15.53;10.70;;;;;;;;;;5014836;28;20498;-78
2023/04/28 07:21:03;;;;;;;18.13;11.00;;;;;;;;;;5014569;28;20460;-77
2023/04/28 07:23:31;;;;;;;13.67;10.50;;;;;;;;;;5013599;28;20453;-76
2023/04/28 07:25:59;;;;;;;11.00;9.90;;;;;;;;;;5014150;28;20439;-77
2023/04/28 07:28:29;;;;;;;12.10;9.53;;;;;;;;;;5013739;28;20479;-78
2023/04/28 07:30:57;;;;;;;13.43;9.30;;;;;;;;;;5014041;28;20454;-77
2023/04/28 07:33:25;;;;;;;11.70;9.50;;;;;;;;;;5015306;28;20498;-78
2023/04/28 07:35:55;;;;;;;10.17;9.27;;;;;;;;;;5018073;28;20479;-78
2023/04/28 07:38:26;;;;;;;7.17;6.53;;;;;;;;;;5019922;28;20838;-76
2023/04/28 07:40:57;;;;;;;15.63;8.50;;;;;;;;;;5018406;28;20459;-77
2023/04/28 07:43:27;;;;;;;14.20;9.20;;;;;;;;;;5018499;28;20475;-77
2023/04/28 07:45:56;;;;;;;7.17;6.67;;;;;;;;;;5017878;28;20454;-76
2023/04/28 07:48:25;;;;;;;9.00;8.30;;;;;;;;;;5024182;28;20536;-77
2023/04/28 07:50:54;;;;;;;8.47;5.80;;;;;;;;;;5024775;28;20450;-79
2023/04/28 07:53:22;;;;;;;7.00;6.23;;;;;;;;;;5023726;28;20439;-79
2023/04/28 07:55:53;;;;;;;9.33;6.97;;;;;;;;;;5019346;28;20507;-76
2023/04/28 07:58:21;;;;;;;6.20;5.70;;;;;;;;;;5017986;28;20483;-79
2023/04/28 08:00:52;;;;;;;7.40;6.70;;;;;;;;;;5014514;28;20494;-77
2023/04/28 08:03:23;;;;;;;7.10;6.50;;;;;;;;;;5013015;28;20542;-77
2023/04/28 08:05:50;;;;;;;6.23;5.70;;;;;;;;;;5012890;28;20823;-76
2023/04/28 08:08:18;;;;;;;7.33;6.67;;;;;;;;;;5013881;28;20486;-76
2023/04/28 08:10:47;;;;;;;6.57;5.97;;;;;;;;;;5012965;28;20489;-77
2023/04/28 08:13:27;;;;;;;7.00;6.40;;;;;;;;;;5013349;28;20455;-76
2023/04/28 08:15:59;;;;;;;5.93;5.53;;;;;;;;;;5012595;28;20482;-76
2023/04/28 08:18:27;;;;;;;6.63;6.03;;;;;;;;;;5013099;28;20503;-76
2023/04/28 08:20:55;;;;;;;5.80;5.40;;;;;;;;;;5012867;28;20451;-77
2023/04/28 08:23:29;;;;;;;5.43;4.83;;;;;;;;;;5012354;28;20482;-77
2023/04/28 08:25:56;;;;;;;11.77;10.37;;;;;;;;;;5012793;28;20522;-77
2023/04/28 08:28:27;;;;;;;13.77;12.10;;;;;;;;;;5013597;28;20842;-78
2023/04/28 08:30:57;;;;;;;15.50;12.40;;;;;;;;;;5012789;28;20439;-77
2023/04/28 08:33:26;;;;;;;14.10;12.77;;;;;;;;;;5015740;28;20463;-78
2023/04/28 08:35:56;;;;;;;13.70;12.47;;;;;;;;;;5013426;28;20475;-76
2023/04/28 08:38:24;;;;;;;17.23;13.20;;;;;;;;;;5013348;28;20475;-76
2023/04/28 08:40:52;;;;;;;13.97;12.67;;;;;;;;;;5013574;28;20451;-76
2023/04/28 08:43:20;;;;;;;15.43;13.57;;;;;;;;;;5012696;28;20541;-76
2023/04/28 08:45:52;;;;;;;13.23;12.10;;;;;;;;;;5013609;28;20512;-76
2023/04/28 08:48:23;;;;;;;14.47;13.17;;;;;;;;;;5012265;28;20479;-75
2023/04/28 08:54:22;;;;;;;13.77;12.47;;;;;;;;;;4994300;28;20923;-77
2023/04/28 08:57:05;;;;;;;13.60;12.30;;;;;;;;;;5011578;28;20482;-76
2023/04/28 09:02:22;;;;;;;14.30;12.77;;;;;;;;;;4995003;28;20533;-76
2023/04/28 09:08:17;;;;;;;14.07;12.57;;;;;;;;;;5002292;28;20443;-76
2023/04/28 09:10:44;;;;;;;15.03;13.63;;;;;;;;;;5001964;28;20443;-77
2023/04/28 09:13:25;;;;;;;14.80;13.27;;;;;;;;;;5013648;28;20436;-77
2023/04/28 09:16:00;;;;;;;31.70;28.47;;;;;;;;;;5016084;28;20511;-77
2023/04/28 09:18:32;;;;;;;14.77;13.37;;;;;;;;;;5013857;28;20549;-77
2023/04/28 09:21:06;;;;;;;15.93;14.30;;;;;;;;;;5014039;28;20497;-76
2023/04/28 09:23:34;;;;;;;14.70;13.43;;;;;;;;;;5014086;28;20512;-77
2023/04/28 09:26:03;;;;;;;14.60;13.33;;;;;;;;;;5014091;28;20447;-77
2023/04/28 09:28:33;;;;;;;14.80;13.40;;;;;;;;;;5014421;28;20479;-76
2023/04/28 09:31:02;;;;;;;13.23;12.10;;;;;;;;;;5014715;28;20804;-76
2023/04/28 09:33:35;;;;;;;12.00;11.00;;;;;;;;;;5013225;28;20550;-76
2023/04/28 09:36:03;;;;;;;12.63;11.53;;;;;;;;;;5014899;28;20558;-77
2023/04/28 09:38:31;;;;;;;13.63;12.23;;;;;;;;;;5014941;28;20498;-77
2023/04/28 09:41:01;;;;;;;13.30;12.07;;;;;;;;;;5014742;28;20467;-77
2023/04/28 09:43:34;;;;;;;13.77;12.47;;;;;;;;;;5013850;28;20423;-77
2023/04/28 09:46:06;;;;;;;13.10;11.90;;;;;;;;;;5014544;28;20475;-76
2023/04/28 09:48:40;;;;;;;12.90;11.57;;;;;;;;;;5014449;28;20479;-75
2023/04/28 10:00:54;;;;;;;13.97;12.67;;;;;;;;;;4969158;28;20439;-78
2023/04/28 10:03:33;;;;;;;13.97;12.57;;;;;;;;;;5024724;28;20459;-78
2023/04/28 10:11:51;;;;;;;13.30;12.20;;;;;;;;;;5021690;28;20443;-76
2023/04/28 10:14:19;;;;;;;12.63;11.60;;;;;;;;;;5022412;28;20474;-77
2023/04/28 10:16:50;;;;;;;14.93;13.47;;;;;;;;;;5020971;28;20483;-79
2023/04/28 10:19:20;;;;;;;13.73;11.73;;;;;;;;;;5021989;28;20538;-79
2023/04/28 10:21:59;;;;;;;12.40;11.30;;;;;;;;;;5018377;28;20446;-78
2023/04/28 10:24:31;;;;;;;12.20;11.10;;;;;;;;;;5017964;28;20464;-77
2023/04/28 10:27:18;;;;;;;12.93;11.73;;;;;;;;;;5016357;28;20459;-77
2023/04/28 10:29:46;;;;;;;14.07;12.77;;;;;;;;;;5016529;28;20447;-77
2023/04/28 10:35:42;;;;;;;14.10;12.83;;;;;;;;;;5011203;28;20549;-77
2023/04/28 10:38:13;;;;;;;13.27;12.03;;;;;;;;;;5018996;28;20478;-77
2023/04/28 10:40:44;;;;;;;11.80;10.70;;;;;;;;;;5019970;28;20463;-78
2023/04/28 10:43:14;;;;;;;11.10;10.20;;;;;;;;;;5020610;28;20521;-78
2023/04/28 10:46:05;;;;;;;9.90;9.00;;;;;;;;;;5020590;28;20455;-77
2023/04/28 10:48:55;;;;;;;10.87;9.97;;;;;;;;;;5019509;28;20467;-76
2023/04/28 10:51:32;;;;;;;1.60;1.60;;;;;;;;;;5020346;28;20487;-78
2023/04/28 10:54:23;;;;;;;1.63;1.63;;;;;;;;;;5021083;28;20902;-78
2023/04/28 10:57:10;;;;;;;1.50;1.40;;;;;;;;;;5021526;28;20717;-78
2023/04/28 10:59:38;;;;;;;1.20;1.20;;;;;;;;;;5019774;28;20467;-78
2023/04/28 11:02:24;;;;;;;1.00;1.00;;;;;;;;;;5019149;28;20448;-79
2023/04/28 11:05:10;;;;;;;1.03;1.03;;;;;;;;;;5018740;28;20932;-77
2023/04/28 11:07:40;;;;;;;0.80;0.80;;;;;;;;;;5017914;28;21097;-79
2023/04/28 11:10:11;;;;;;;1.40;1.20;;;;;;;;;;5018976;28;20517;-79
2023/04/28 11:13:03;;;;;;;1.27;1.27;;;;;;;;;;5018294;28;20501;-77
2023/04/28 11:15:39;;;;;;;1.07;0.73;;;;;;;;;;5017862;28;20506;-76
2023/04/28 11:18:12;;;;;;;1.53;1.20;;;;;;;;;;5018100;28;20495;-78
2023/04/28 11:20:41;;;;;;;0.80;0.80;;;;;;;;;;5016095;28;20451;-77
2023/04/28 11:23:09;;;;;;;1.50;0.77;;;;;;;;;;5013961;28;20550;-79
2023/04/28 11:25:54;;;;;;;0.80;0.80;;;;;;;;;;5012809;28;20486;-74
2023/04/28 11:28:24;;;;;;;2.77;2.57;;;;;;;;;;5016687;28;20498;-78
2023/04/28 11:30:53;;;;;;;1.10;1.10;;;;;;;;;;5015791;28;20456;-77
2023/04/28 11:33:21;;;;;;;1.00;0.90;;;;;;;;;;5016494;28;20454;-79
2023/04/28 11:35:53;;;;;;;1.20;1.10;;;;;;;;;;5016434;28;20998;-79
2023/04/28 11:38:24;;;;;;;0.73;0.73;;;;;;;;;;5016741;28;20463;-78
2023/04/28 11:40:58;;;;;;;0.70;0.70;;;;;;;;;;5016248;28;20799;-78
2023/04/28 11:43:34;;;;;;;0.70;0.70;;;;;;;;;;5015937;28;20454;-76
2023/04/28 11:46:02;;;;;;;0.60;0.60;;;;;;;;;;5017157;28;20530;-78
2023/04/28 11:48:32;;;;;;;0.90;0.90;;;;;;;;;;5015974;28;20475;-77
2023/04/28 11:50:59;;;;;;;1.40;0.80;;;;;;;;;;5015803;28;20474;-77
2023/04/28 11:53:44;;;;;;;0.50;0.50;;;;;;;;;;5016903;28;20460;-76
2023/04/28 11:56:13;;;;;;;2.87;1.07;;;;;;;;;;5015801;28;20471;-76
2023/04/28 11:58:44;;;;;;;1.00;1.00;;;;;;;;;;5016015;28;20494;-78
2023/04/28 12:01:14;;;;;;;1.70;0.97;;;;;;;;;;5017167;28;20493;-78
2023/04/28 12:03:51;;;;;;;0.90;0.90;;;;;;;;;;5016809;28;20490;-79
2023/04/28 12:06:19;;;;;;;0.70;0.70;;;;;;;;;;5016315;28;20791;-77
2023/04/28 12:08:48;;;;;;;0.80;0.80;;;;;;;;;;5016416;28;20486;-79
2023/04/28 12:11:20;;;;;;;1.23;0.70;;;;;;;;;;5016632;28;20477;-78
2023/04/28 12:14:09;;;;;;;1.67;0.80;;;;;;;;;;5015783;28;20452;-77
2023/04/28 12:16:47;;;;;;;0.90;0.90;;;;;;;;;;5015353;28;20551;-76
2023/04/28 12:19:19;;;;;;;2.20;0.80;;;;;;;;;;5013761;28;20464;-77
2023/04/28 12:22:00;;;;;;;1.43;0.90;;;;;;;;;;5015844;28;20493;-77
2023/04/28 12:24:34;;;;;;;1.27;0.80;;;;;;;;;;5016702;28;20459;-77
2023/04/28 12:27:27;;;;;;;1.07;1.07;;;;;;;;;;5018155;28;20594;-79
2023/04/28 12:30:11;;;;;;;1.13;0.87;;;;;;;;;;5018016;28;20448;-77
2023/04/28 12:32:42;;;;;;;1.33;0.80;;;;;;;;;;5017319;28;20459;-77
2023/04/28 12:35:17;;;;;;;0.73;0.63;;;;;;;;;;5018586;28;20448;-77
2023/04/28 12:37:52;;;;;;;0.90;0.90;;;;;;;;;;5017803;28;20848;-77
2023/04/28 12:40:24;;;;;;;0.97;0.90;;;;;;;;;;5018246;28;20435;-79
2023/04/28 12:42:55;;;;;;;0.60;0.60;;;;;;;;;;5018761;28;20531;-79
2023/04/28 12:45:30;;;;;;;1.03;1.00;;;;;;;;;;5019193;28;20462;-78
2023/04/28 12:48:05;;;;;;;1.80;1.70;;;;;;;;;;5017482;28;20502;-78
2023/04/28 12:50:36;;;;;;;1.10;1.10;;;;;;;;;;5018460;28;20981;-79
2023/04/28 12:53:05;;;;;;;1.40;1.30;;;;;;;;;;5018488;28;20491;-77
2023/04/28 12:55:34;;;;;;;1.80;1.70;;;;;;;;;;5017707;28;20545;-78
2023/04/28 12:58:05;;;;;;;1.70;1.50;;;;;;;;;;5019250;28;20489;-78
2023/04/28 13:00:34;;;;;;;2.97;1.40;;;;;;;;;;5022478;28;20447;-77
2023/04/28 13:03:05;;;;;;;1.37;1.30;;;;;;;;;;5021755;28;20538;-78
2023/04/28 13:05:36;;;;;;;0.90;0.90;;;;;;;;;;5022002;28;20447;-78
2023/04/28 13:08:13;;;;;;;0.87;0.87;;;;;;;;;;5020464;28;20478;-77
2023/04/28 13:10:41;;;;;;;0.60;0.60;;;;;;;;;;5019360;28;20446;-77
2023/04/28 13:13:09;;;;;;;1.03;0.90;;;;;;;;;;5020187;28;20451;-80
2023/04/28 13:15:40;;;;;;;1.40;1.10;;;;;;;;;;5021146;28;20447;-79
2023/04/28 13:18:08;;;;;;;0.93;0.93;;;;;;;;;;5005764;28;20502;-78
2023/04/28 13:20:41;;;;;;;1.67;1.10;;;;;;;;;;5020913;28;20451;-80
2023/04/28 13:23:09;;;;;;;1.03;1.03;;;;;;;;;;5020719;28;20455;-77
2023/04/28 13:25:37;;;;;;;0.90;0.90;;;;;;;;;;5017786;28;20493;-76
2023/04/28 13:28:08;;;;;;;1.13;1.13;;;;;;;;;;4998144;28;20475;-78
2023/04/28 13:30:39;;;;;;;1.03;0.97;;;;;;;;;;5005236;28;20505;-76
2023/04/28 13:33:09;;;;;;;1.37;0.80;;;;;;;;;;5017074;28;20526;-77
2023/04/28 13:35:48;;;;;;;0.80;0.80;;;;;;;;;;5017775;28;20453;-78
2023/04/28 13:38:17;;;;;;;0.80;0.80;;;;;;;;;;5012505;28;20471;-77
2023/04/28 13:41:15;;;;;;;0.90;0.90;;;;;;;;;;5018171;28;20443;-77
2023/04/28 13:50:01;;;;;;;1.10;1.00;;;;;;;;;;5019996;28;20510;-76
2023/04/28 13:52:29;;;;;;;1.30;1.20;;;;;;;;;;5054787;28;20540;-76
2023/04/28 13:54:57;;;;;;;1.00;1.00;;;;;;;;;;5080165;28;20524;-76
2023/04/28 13:57:25;;;;;;;1.13;1.00;;;;;;;;;;5063337;28;20966;-76
2023/04/28 13:59:53;;;;;;;0.83;0.83;;;;;;;;;;5058428;28;20472;-77
2023/04/28 14:02:26;;;;;;;1.23;1.23;;;;;;;;;;5061191;28;20454;-76
2023/04/28 14:04:54;;;;;;;4.83;1.50;;;;;;;;;;5070002;28;21011;-77
2023/04/28 14:07:25;;;;;;;1.50;1.40;;;;;;;;;;5066591;28;20929;-76
2023/04/28 14:09:52;;;;;;;1.30;0.90;;;;;;;;;;5076157;28;20457;-77
2023/04/28 14:12:21;;;;;;;1.23;1.13;;;;;;;;;;5064767;28;20809;-77
2023/04/28 14:14:49;;;;;;;12.20;10.47;;;;;;;;;;5076799;28;20444;-76
2023/04/28 14:17:17;;;;;;;5.10;4.70;;;;;;;;;;5062389;28;20529;-77
2023/04/28 14:19:47;;;;;;;3.43;1.47;;;;;;;;;;5075250;28;20429;-77
2023/04/28 14:22:17;;;;;;;2.33;2.13;;;;;;;;;;5062361;28;20452;-77
2023/04/28 14:24:47;;;;;;;1.50;1.40;;;;;;;;;;5067355;28;20536;-76
2023/04/28 14:27:15;;;;;;;2.80;2.40;;;;;;;;;;5070320;28;20468;-77
2023/04/28 14:29:43;;;;;;;1.83;1.73;;;;;;;;;;5076657;28;20457;-76
2023/04/28 14:32:11;;;;;;;3.63;1.70;;;;;;;;;;5070485;28;20484;-78
2023/04/28 14:34:39;;;;;;;1.57;1.50;;;;;;;;;;5058421;28;20473;-77
2023/04/28 14:37:07;;;;;;;2.63;1.60;;;;;;;;;;5072536;28;20441;-77
2023/04/28 14:39:35;;;;;;;2.07;1.70;;;;;;;;;;5065081;28;20482;-77
2023/04/28 14:42:03;;;;;;;1.80;1.70;;;;;;;;;;5080423;28;20441;-76
2023/04/28 14:44:31;;;;;;;2.73;2.53;;;;;;;;;;5073582;28;20450;-76
2023/04/28 14:46:58;;;;;;;3.37;2.37;;;;;;;;;;5062730;28;20945;-77
2023/04/28 14:49:26;;;;;;;3.00;2.77;;;;;;;;;;5063500;28;20517;-76
2023/04/28 14:52:03;;;;;;;3.23;2.70;;;;;;;;;;5062341;28;20504;-76
2023/04/28 14:54:36;;;;;;;2.43;2.23;;;;;;;;;;5062467;28;20967;-76
2023/04/28 14:57:10;;;;;;;2.03;1.70;;;;;;;;;;5049482;28;21002;-76
2023/04/28 14:59:40;;;;;;;2.47;1.77;;;;;;;;;;5040388;28;20473;-76
2023/04/28 15:02:08;;;;;;;2.67;2.03;;;;;;;;;;5038812;28;20992;-76
2023/04/28 15:04:36;;;;;;;1.83;1.73;;;;;;;;;;5039914;28;20606;-76
2023/04/28 15:07:04;;;;;;;3.00;2.80;;;;;;;;;;5040401;28;20486;-76
2023/04/28 15:09:32;;;;;;;4.00;2.03;;;;;;;;;;5044704;28;20544;-77
2023/04/28 15:12:07;;;;;;;18.67;16.70;;;;;;;;;;5054295;28;20803;-76
2023/04/28 15:14:35;;;;;;;1.40;1.30;;;;;;;;;;5053592;28;20964;-76
2023/04/28 15:17:09;;;;;;;0.80;0.80;;;;;;;;;;5053705;28;20449;-75
2023/04/28 15:19:38;;;;;;;1.00;0.73;;;;;;;;;;5036726;28;20464;-77
2023/04/28 15:22:06;;;;;;;0.70;0.60;;;;;;;;;;5032708;28;20461;-76
2023/04/28 15:24:39;;;;;;;2.20;1.20;;;;;;;;;;5033954;28;20481;-75
2023/04/28 15:27:08;;;;;;;0.80;0.80;;;;;;;;;;5034012;28;20474;-76
2023/04/28 15:29:36;;;;;;;1.50;0.60;;;;;;;;;;5033810;28;20792;-77
2023/04/28 15:32:04;;;;;;;0.73;0.73;;;;;;;;;;5033860;28;20473;-76
2023/04/28 15:34:32;;;;;;;0.87;0.50;;;;;;;;;;5033036;28;20449;-77
2023/04/28 15:37:00;;;;;;;2.50;0.90;;;;;;;;;;5034762;28;20454;-75
2023/04/28 15:39:27;;;;;;;1.20;1.20;;;;;;;;;;5034912;28;20459;-75
2023/04/28 15:41:57;;;;;;;1.40;1.00;;;;;;;;;;5033876;28;20451;-75